createdAt,value
2019-05-29T00:02:31.405Z,73.26
2019-05-29T00:05:35.873Z,73.39
2019-05-29T00:08:40.325Z,73.97
2019-05-29T00:11:44.765Z,74.86
2019-05-29T00:14:49.211Z,74.61
2019-05-29T00:17:53.665Z,74.79
2019-05-29T00:20:58.124Z,74.59
2019-05-29T00:24:02.577Z,74.34
2019-05-29T00:27:07.388Z,74.14
2019-05-29T00:30:13.467Z,73.28
2019-05-29T00:33:18.361Z,73.54
2019-05-29T00:36:22.876Z,73.02
2019-05-29T00:39:27.328Z,71.63
2019-05-29T00:42:31.769Z,71.73
2019-05-29T00:45:36.219Z,71.83
2019-05-29T00:48:40.676Z,70.98
2019-05-29T00:51:45.462Z,70.68
2019-05-29T00:54:49.904Z,70.86
2019-05-29T00:57:54.607Z,71.03
2019-05-29T01:00:59.065Z,71.65
2019-05-29T01:04:03.525Z,71.57
2019-05-29T01:07:07.979Z,73.66
2019-05-29T01:10:13.228Z,73.64
2019-05-29T01:13:17.678Z,75.61
2019-05-29T01:16:22.143Z,76.65
2019-05-29T01:19:26.601Z,77.32
2019-05-29T01:22:31.095Z,78.01
2019-05-29T01:25:35.546Z,77.98
2019-05-29T01:28:39.990Z,77.99
2019-05-29T01:31:44.450Z,78.34
2019-05-29T01:34:49.225Z,78.00
2019-05-29T01:37:53.995Z,77.55
2019-05-29T01:40:58.416Z,77.87
2019-05-29T01:44:03.045Z,78.37
2019-05-29T01:47:07.496Z,78.60
2019-05-29T01:50:12.457Z,78.08
2019-05-29T01:53:17.685Z,78.48
2019-05-29T01:56:23.823Z,77.65
2019-05-29T01:59:28.482Z,76.67
2019-05-29T02:02:33.245Z,77.02
2019-05-29T02:05:37.698Z,76.87
2019-05-29T02:08:42.140Z,76.09
2019-05-29T02:11:46.660Z,76.11
2019-05-29T02:14:51.110Z,76.22
2019-05-29T02:17:55.548Z,75.97
2019-05-29T02:21:00.021Z,75.54
2019-05-29T02:24:04.531Z,75.45
2019-05-29T02:27:09.060Z,76.30
2019-05-29T02:30:14.130Z,77.14
2019-05-29T02:33:19.605Z,76.80
2019-05-29T02:36:24.736Z,77.66
2019-05-29T02:39:30.448Z,77.12
2019-05-29T02:42:34.893Z,77.23
2019-05-29T02:45:53.941Z,78.33
2019-05-29T02:48:45.570Z,78.87
2019-05-29T02:51:50.572Z,78.74
2019-05-29T02:54:55.019Z,77.88
2019-05-29T02:57:59.467Z,77.71
2019-05-29T03:01:03.925Z,78.05
2019-05-29T03:04:08.391Z,77.03
2019-05-29T03:07:12.832Z,77.34
2019-05-29T03:10:17.350Z,77.21
2019-05-29T03:13:23.091Z,77.11
2019-05-29T03:16:28.776Z,76.89
2019-05-29T03:19:34.670Z,77.03
2019-05-29T03:22:39.817Z,77.24
2019-05-29T03:25:44.280Z,77.27
2019-05-29T03:28:48.733Z,76.83
2019-05-29T03:31:53.183Z,77.19
2019-05-29T03:34:57.927Z,76.70
2019-05-29T03:38:02.385Z,75.84
2019-05-29T03:41:06.849Z,76.55
2019-05-29T03:44:11.309Z,75.84
2019-05-29T03:47:15.747Z,75.93
2019-05-29T03:50:20.477Z,76.35
2019-05-29T03:53:27.055Z,75.93
2019-05-29T03:56:32.604Z,76.95
2019-05-29T03:59:37.515Z,75.62
2019-05-29T04:02:42.195Z,76.97
2019-05-29T04:05:46.973Z,76.75
2019-05-29T04:08:51.426Z,77.44
2019-05-29T04:11:56.354Z,77.76
2019-05-29T04:15:00.803Z,78.27
2019-05-29T04:18:06.897Z,78.41
2019-05-29T04:21:12.595Z,78.44
2019-05-29T04:24:19.289Z,78.99
2019-05-29T04:27:29.935Z,77.88
2019-05-29T04:30:39.145Z,78.81
2019-05-29T04:33:43.883Z,78.44
2019-05-29T04:36:48.341Z,78.21
2019-05-29T04:39:52.865Z,77.20
2019-05-29T04:42:57.795Z,77.70
2019-05-29T04:46:02.508Z,77.47
2019-05-29T04:49:07.009Z,77.98
2019-05-29T04:52:11.469Z,77.72
2019-05-29T04:55:16.186Z,78.21
2019-05-29T04:58:20.645Z,78.68
2019-05-29T05:01:25.100Z,78.82
2019-05-29T05:04:29.553Z,78.95
2019-05-29T05:07:35.276Z,78.59
2019-05-29T05:10:41.548Z,78.13
2019-05-29T05:13:46.580Z,77.83
2019-05-29T05:16:51.049Z,78.72
2019-05-29T05:19:55.499Z,78.44
2019-05-29T05:22:59.952Z,77.88
2019-05-29T05:26:04.473Z,77.40
2019-05-29T05:29:08.993Z,77.89
2019-05-29T05:32:13.771Z,76.33
2019-05-29T05:35:18.245Z,76.88
2019-05-29T05:38:22.694Z,76.94
2019-05-29T05:41:27.144Z,76.53
2019-05-29T05:44:32.754Z,77.46
2019-05-29T05:47:49.976Z,76.60
2019-05-29T05:50:43.447Z,76.88
2019-05-29T05:53:48.234Z,77.27
2019-05-29T05:56:53.688Z,77.28
2019-05-29T05:59:58.606Z,78.21
2019-05-29T06:03:03.055Z,77.47
2019-05-29T06:06:07.507Z,77.49
2019-05-29T06:09:12.032Z,76.70
2019-05-29T06:12:16.490Z,76.27
2019-05-29T06:15:21.347Z,77.17
2019-05-29T06:18:25.804Z,76.85
2019-05-29T06:21:30.252Z,76.17
2019-05-29T06:24:35.062Z,76.10
2019-05-29T06:27:39.640Z,76.48
2019-05-29T06:30:45.096Z,75.90
2019-05-29T06:33:49.700Z,76.20
2019-05-29T06:36:54.140Z,75.90
2019-05-29T06:39:58.599Z,75.73
2019-05-29T06:43:03.044Z,75.13
2019-05-29T06:46:07.496Z,75.35
2019-05-29T06:49:11.958Z,74.59
2019-05-29T06:52:16.406Z,74.93
2019-05-29T06:55:20.874Z,74.66
2019-05-29T06:58:25.339Z,75.40
2019-05-29T07:01:29.781Z,75.57
2019-05-29T07:04:34.234Z,75.80
2019-05-29T07:07:40.166Z,76.04
2019-05-29T07:10:44.814Z,76.33
2019-05-29T07:13:50.586Z,75.86
2019-05-29T07:16:56.396Z,76.01
2019-05-29T07:20:04.071Z,76.09
2019-05-29T07:23:07.591Z,75.11
2019-05-29T07:26:12.062Z,74.62
2019-05-29T07:29:16.815Z,73.34
2019-05-29T07:32:21.264Z,74.75
2019-05-29T07:35:25.726Z,74.21
2019-05-29T07:38:30.242Z,72.42
2019-05-29T07:41:34.685Z,73.42
2019-05-29T07:44:39.958Z,73.40
2019-05-29T07:47:44.840Z,72.88
2019-05-29T07:51:04.465Z,73.53
2019-05-29T07:53:55.932Z,73.18
2019-05-29T07:57:00.337Z,73.99
2019-05-29T08:00:08.243Z,73.12
2019-05-29T08:03:12.758Z,73.23
2019-05-29T08:06:17.479Z,74.03
2019-05-29T08:09:22.014Z,71.88
2019-05-29T08:12:26.750Z,72.07
2019-05-29T08:15:31.210Z,72.19
2019-05-29T08:18:35.673Z,72.59
2019-05-29T08:21:40.963Z,72.77
2019-05-29T08:24:47.765Z,71.42
2019-05-29T08:27:52.459Z,72.73
2019-05-29T08:30:57.168Z,71.40
2019-05-29T08:34:01.621Z,71.35
2019-05-29T08:37:07.450Z,70.21
2019-05-29T08:40:13.817Z,70.31
2019-05-29T08:43:18.547Z,70.63
2019-05-29T08:46:23.012Z,69.58
2019-05-29T08:49:27.451Z,70.07
2019-05-29T08:52:31.900Z,69.02
2019-05-29T08:55:36.352Z,67.63
2019-05-29T08:58:42.772Z,67.34
2019-05-29T09:01:48.632Z,66.64
2019-05-29T09:04:54.915Z,64.46
2019-05-29T09:07:59.526Z,64.62
2019-05-29T09:11:03.998Z,66.16
2019-05-29T09:14:08.426Z,64.55
2019-05-29T09:17:14.551Z,63.12
2019-05-29T09:20:34.059Z,63.27
2019-05-29T09:23:25.578Z,63.76
2019-05-29T09:26:30.321Z,63.33
2019-05-29T09:29:34.767Z,64.02
2019-05-29T09:32:50.527Z,61.98
2019-05-29T09:35:45.393Z,64.17
2019-05-29T09:38:50.317Z,62.46
2019-05-29T09:41:54.948Z,61.86
2019-05-29T09:44:59.394Z,63.58
2019-05-29T09:48:04.083Z,63.02
2019-05-29T09:51:20.807Z,61.73
2019-05-29T09:54:14.802Z,61.31
2019-05-29T09:57:19.560Z,62.25
2019-05-29T10:00:24.603Z,61.20
2019-05-29T10:03:29.038Z,59.45
2019-05-29T10:06:33.513Z,60.14
2019-05-29T10:09:37.950Z,59.81
2019-05-29T10:12:42.420Z,58.94
2019-05-29T10:15:46.873Z,59.00
2019-05-29T10:18:51.328Z,59.13
2019-05-29T10:21:56.714Z,58.61
2019-05-29T10:25:02.053Z,57.81
2019-05-29T10:28:06.497Z,60.14
2019-05-29T10:31:11.022Z,58.88
2019-05-29T10:34:15.543Z,60.13
2019-05-29T10:37:20.105Z,59.79
2019-05-29T10:40:24.882Z,59.62
2019-05-29T10:43:34.332Z,61.62
2019-05-29T10:46:35.779Z,60.94
2019-05-29T10:49:40.223Z,60.87
2019-05-29T10:52:45.761Z,59.27
2019-05-29T10:55:50.518Z,61.02
2019-05-29T10:58:59.491Z,58.90
2019-05-29T11:02:01.190Z,59.58
2019-05-29T11:05:07.887Z,61.12
2019-05-29T11:08:12.332Z,58.87
2019-05-29T11:11:17.089Z,59.31
2019-05-29T11:14:21.824Z,58.67
2019-05-29T11:17:26.274Z,58.90
2019-05-29T11:20:30.770Z,59.90
2019-05-29T11:23:35.228Z,60.47
2019-05-29T11:26:39.668Z,60.79
2019-05-29T11:29:44.130Z,60.81
2019-05-29T11:32:50.246Z,60.36
2019-05-29T11:36:07.358Z,59.65
2019-05-29T11:39:06.037Z,58.93
2019-05-29T11:42:08.321Z,58.76
2019-05-29T11:45:13.514Z,57.98
2019-05-29T11:48:17.968Z,58.82
2019-05-29T11:51:22.702Z,60.48
2019-05-29T11:54:27.156Z,59.56
2019-05-29T11:57:31.994Z,60.51
2019-05-29T12:00:36.497Z,60.06
2019-05-29T12:04:05.272Z,58.96
2019-05-29T12:06:47.121Z,61.81
2019-05-29T12:09:51.577Z,61.29
2019-05-29T12:12:56.041Z,60.61
2019-05-29T12:16:00.478Z,61.40
2019-05-29T12:19:05.480Z,62.53
2019-05-29T12:22:10.099Z,63.81
2019-05-29T12:25:15.243Z,65.05
2019-05-29T12:28:19.686Z,63.84
2019-05-29T12:31:24.129Z,65.03
2019-05-29T12:34:28.920Z,59.80
2019-05-29T12:37:33.653Z,60.58
2019-05-29T12:40:38.112Z,61.08
2019-05-29T12:43:42.910Z,61.44
2019-05-29T12:46:47.630Z,63.71
2019-05-29T12:49:53.573Z,64.31
2019-05-29T12:52:59.452Z,65.14
2019-05-29T12:56:04.753Z,63.55
2019-05-29T12:59:09.195Z,62.21
2019-05-29T13:02:13.674Z,62.20
2019-05-29T13:05:20.706Z,62.13
2019-05-29T13:08:25.033Z,62.59
2019-05-29T13:11:29.472Z,62.77
2019-05-29T13:14:33.927Z,60.53
2019-05-29T13:17:38.374Z,59.40
2019-05-29T13:20:43.160Z,59.39
2019-05-29T13:23:47.601Z,59.32
2019-05-29T13:26:52.052Z,59.51
2019-05-29T13:29:59.897Z,59.32
2019-05-29T13:33:05.278Z,59.91
2019-05-29T13:36:08.872Z,58.75
2019-05-29T13:39:13.313Z,59.24
2019-05-29T13:42:17.753Z,57.18
2019-05-29T13:45:23.507Z,57.75
2019-05-29T13:48:27.943Z,57.77
2019-05-29T13:51:32.726Z,55.03
2019-05-29T13:54:37.166Z,55.92
2019-05-29T13:57:41.609Z,55.55
2019-05-29T14:00:46.064Z,55.71
2019-05-29T14:03:50.868Z,55.63
2019-05-29T14:06:55.371Z,57.03
2019-05-29T14:10:00.885Z,57.13
2019-05-29T14:13:07.511Z,58.18
2019-05-29T14:16:12.969Z,59.08
2019-05-29T14:19:17.765Z,59.97
2019-05-29T14:22:22.218Z,60.48
2019-05-29T14:25:26.662Z,61.18
2019-05-29T14:28:31.103Z,62.00
2019-05-29T14:31:35.631Z,61.88
2019-05-29T14:34:40.402Z,62.21
2019-05-29T14:37:44.847Z,61.57
2019-05-29T14:40:49.298Z,60.66
2019-05-29T14:43:54.942Z,61.26
2019-05-29T14:46:59.405Z,60.11
2019-05-29T14:50:06.486Z,58.15
2019-05-29T14:53:11.388Z,58.64
2019-05-29T14:56:16.782Z,58.01
2019-05-29T14:59:21.288Z,56.31
2019-05-29T15:02:25.855Z,56.12
2019-05-29T15:05:30.307Z,54.07
2019-05-29T15:08:35.085Z,55.21
2019-05-29T15:11:39.544Z,54.27
2019-05-29T15:14:44.058Z,53.39
2019-05-29T15:17:48.762Z,54.71
2019-05-29T15:20:53.498Z,56.20
2019-05-29T15:23:57.935Z,56.75
2019-05-29T15:27:02.477Z,55.39
2019-05-29T15:30:08.813Z,57.23
2019-05-29T15:33:14.777Z,56.43
2019-05-29T15:36:19.442Z,57.34
2019-05-29T15:39:23.876Z,55.79
2019-05-29T15:42:28.333Z,55.04
2019-05-29T15:45:32.787Z,54.53
2019-05-29T15:48:37.510Z,54.34
2019-05-29T15:51:42.254Z,54.79
2019-05-29T15:54:46.682Z,55.39
2019-05-29T15:57:51.147Z,54.71
2019-05-29T16:00:55.599Z,55.42
2019-05-29T16:04:00.055Z,52.71
2019-05-29T16:07:04.551Z,53.12
2019-05-29T16:10:13.037Z,52.73
2019-05-29T16:13:17.363Z,54.68
2019-05-29T16:16:21.996Z,55.63
2019-05-29T16:19:26.439Z,53.96
2019-05-29T16:22:30.887Z,53.53
2019-05-29T16:25:40.141Z,55.12
2019-05-29T16:28:41.523Z,56.91
2019-05-29T16:31:45.975Z,56.48
2019-05-29T16:34:50.418Z,55.59
2019-05-29T16:37:54.861Z,56.19
2019-05-29T16:40:59.315Z,56.93
2019-05-29T16:44:04.867Z,56.47
2019-05-29T16:47:09.644Z,57.90
2019-05-29T16:50:16.688Z,58.83
2019-05-29T16:53:21.412Z,59.14
2019-05-29T16:56:25.879Z,59.92
2019-05-29T16:59:30.317Z,60.25
2019-05-29T17:02:34.778Z,59.37
2019-05-29T17:05:39.219Z,57.77
2019-05-29T17:08:43.670Z,58.87
2019-05-29T17:11:48.124Z,60.82
2019-05-29T17:14:52.571Z,61.70
2019-05-29T17:17:57.040Z,60.30
2019-05-29T17:21:01.491Z,61.96
2019-05-29T17:24:06.203Z,62.10
2019-05-29T17:27:10.678Z,62.59
2019-05-29T17:30:21.036Z,63.64
2019-05-29T17:33:25.495Z,63.41
2019-05-29T17:36:29.953Z,62.27
2019-05-29T17:39:34.413Z,62.06
2019-05-29T17:42:38.853Z,61.64
2019-05-29T17:45:43.297Z,61.96
2019-05-29T17:48:47.749Z,61.83
2019-05-29T17:51:52.233Z,63.23
2019-05-29T17:54:56.671Z,62.77
2019-05-29T17:58:01.132Z,62.89
2019-05-29T18:01:05.991Z,62.91
2019-05-29T18:04:10.615Z,63.84
2019-05-29T18:07:16.246Z,64.12
2019-05-29T18:10:22.814Z,64.53
2019-05-29T18:13:27.659Z,64.16
2019-05-29T18:16:32.107Z,64.66
2019-05-29T18:19:36.559Z,65.23
2019-05-29T18:22:41.011Z,66.84
2019-05-29T18:25:45.449Z,67.87
2019-05-29T18:28:50.161Z,68.46
2019-05-29T18:31:54.600Z,67.32
2019-05-29T18:34:59.097Z,68.59
2019-05-29T18:38:03.586Z,69.08
2019-05-29T18:41:08.034Z,69.10
2019-05-29T18:44:12.491Z,69.62
2019-05-29T18:47:16.945Z,69.48
2019-05-29T18:50:21.746Z,69.96
2019-05-29T18:53:26.995Z,70.18
2019-05-29T18:56:32.402Z,70.17
2019-05-29T18:59:36.844Z,70.55
2019-05-29T19:02:41.584Z,70.67
2019-05-29T19:05:46.037Z,70.67
2019-05-29T19:08:50.492Z,70.90
2019-05-29T19:11:54.937Z,71.10
2019-05-29T19:15:01.333Z,71.28
2019-05-29T19:18:06.402Z,71.37
2019-05-29T19:21:13.848Z,71.74
2019-05-29T19:24:18.264Z,71.85
2019-05-29T19:27:34.089Z,72.43
2019-05-29T19:30:29.458Z,72.79
2019-05-29T19:33:34.433Z,73.47
2019-05-29T19:36:38.906Z,73.68
2019-05-29T19:39:43.362Z,73.36
2019-05-29T19:42:47.932Z,73.25
2019-05-29T19:45:53.207Z,73.63
2019-05-29T19:48:57.662Z,73.86
2019-05-29T19:52:02.145Z,73.79
2019-05-29T19:55:11.103Z,73.32
2019-05-29T19:58:16.648Z,73.28
2019-05-29T20:01:30.608Z,73.41
2019-05-29T20:04:28.422Z,73.50
2019-05-29T20:07:33.284Z,73.56
2019-05-29T20:10:38.178Z,73.49
2019-05-29T20:13:42.756Z,73.83
2019-05-29T20:16:47.242Z,73.64
2019-05-29T20:19:51.698Z,74.01
2019-05-29T20:22:56.170Z,73.61
2019-05-29T20:26:00.650Z,74.60
2019-05-29T20:29:08.244Z,74.89
2019-05-29T20:32:36.757Z,75.21
2019-05-29T20:35:28.265Z,75.54
2019-05-29T20:38:33.125Z,76.13
2019-05-29T20:41:39.088Z,76.21
2019-05-29T20:44:44.347Z,76.39
2019-05-29T20:47:49.007Z,76.66
2019-05-29T20:50:53.781Z,76.05
2019-05-29T20:53:58.237Z,75.50
2019-05-29T20:57:04.606Z,75.07
2019-05-29T21:00:15.074Z,75.31
2019-05-29T21:03:19.550Z,76.06
2019-05-29T21:06:24.143Z,75.63
2019-05-29T21:09:28.575Z,75.56
2019-05-29T21:12:33.277Z,75.88
2019-05-29T21:15:37.917Z,75.42
2019-05-29T21:18:42.368Z,75.54
2019-05-29T21:21:46.825Z,75.63
2019-05-29T21:25:01.227Z,76.67
2019-05-29T21:27:57.502Z,76.74
2019-05-29T21:31:01.957Z,76.40
2019-05-29T21:34:07.089Z,76.57
2019-05-29T21:37:11.534Z,76.20
2019-05-29T21:40:16.619Z,76.60
2019-05-29T21:43:21.084Z,76.98
2019-05-29T21:46:25.532Z,77.48
2019-05-29T21:49:49.321Z,77.33
2019-05-29T21:52:53.779Z,76.93
2019-05-29T21:55:58.295Z,76.89
2019-05-29T21:59:04.287Z,76.55
2019-05-29T22:02:10.210Z,76.17
2019-05-29T22:05:14.790Z,76.28
2019-05-29T22:08:19.606Z,76.66
2019-05-29T22:11:24.056Z,75.85
2019-05-29T22:14:29.346Z,76.49
2019-05-29T22:17:34.845Z,76.62
2019-05-29T22:20:40.839Z,76.68
2019-05-29T22:23:45.624Z,76.70
2019-05-29T22:26:51.130Z,76.73
2019-05-29T22:29:55.719Z,76.24
2019-05-29T22:33:01.788Z,75.48
2019-05-29T22:36:06.392Z,75.42
2019-05-29T22:39:10.828Z,75.42
2019-05-29T22:42:15.287Z,75.90
2019-05-29T22:45:20.487Z,76.30
2019-05-29T22:48:24.955Z,75.60
2019-05-29T22:51:29.606Z,75.42
2019-05-29T22:54:34.035Z,74.93
2019-05-29T22:57:38.493Z,75.35
2019-05-29T23:00:43.952Z,76.02
2019-05-29T23:03:48.413Z,76.34
2019-05-29T23:06:54.115Z,76.25
2019-05-29T23:09:58.924Z,76.14
2019-05-29T23:13:05.568Z,75.14
2019-05-29T23:16:09.620Z,75.88
2019-05-29T23:19:14.349Z,75.82
2019-05-29T23:22:18.910Z,76.12
2019-05-29T23:25:23.616Z,75.78
2019-05-29T23:28:28.067Z,76.58
2019-05-29T23:31:32.515Z,76.59
2019-05-29T23:34:37.390Z,75.97
2019-05-29T23:37:42.127Z,76.52
2019-05-29T23:40:46.749Z,76.91
2019-05-29T23:43:51.197Z,76.55
2019-05-29T23:46:55.647Z,76.34
2019-05-29T23:50:00.116Z,76.53
2019-05-29T23:53:04.519Z,75.89
2019-05-29T23:56:08.957Z,76.00
2019-05-29T23:59:13.768Z,75.64
